Time;durP1;ratioP1;P1;durP2;ratioP2;P2;SDS_P1;SDS_P2;PMS_P1;PMS_P2;Temp;Humidity;BMP_temperature;BMP_pressure;BME280_temperature;BME280_humidity;BME280_pressure;Samples;Min_cycle;Max_cycle;Signal;HPM_P1;HPM_P2
2023/09/02 00:00:33;;;;;;;6.35;5.10;;;;;;;;;;4987459;28;20101;-74
2023/09/02 00:03:00;;;;;;;9.50;4.55;;;;;;;;;;4984130;28;20062;-74
2023/09/02 00:05:26;;;;;;;8.65;5.10;;;;;;;;;;4984305;28;20061;-74
2023/09/02 00:07:52;;;;;;;5.05;4.15;;;;;;;;;;4993474;28;20530;-74
2023/09/02 00:10:18;;;;;;;7.30;5.03;;;;;;;;;;4988159;28;20507;-75
2023/09/02 00:12:44;;;;;;;8.45;5.05;;;;;;;;;;4988963;28;20047;-74
2023/09/02 00:15:10;;;;;;;9.25;5.55;;;;;;;;;;4997230;28;20121;-74
2023/09/02 00:17:36;;;;;;;7.28;5.93;;;;;;;;;;4985539;28;20034;-73
2023/09/02 00:20:07;;;;;;;10.02;5.10;;;;;;;;;;4988248;28;20030;-74
2023/09/02 00:22:33;;;;;;;5.63;4.57;;;;;;;;;;4986162;28;20068;-73
2023/09/02 00:24:59;;;;;;;6.25;4.78;;;;;;;;;;4989162;28;20046;-73
2023/09/02 00:27:25;;;;;;;8.25;5.05;;;;;;;;;;4981923;28;20480;-74
2023/09/02 00:29:52;;;;;;;9.27;5.68;;;;;;;;;;4987759;28;20042;-75
2023/09/02 00:32:18;;;;;;;13.68;5.40;;;;;;;;;;4977961;28;20469;-76
2023/09/02 00:34:44;;;;;;;7.38;5.32;;;;;;;;;;4985843;28;20042;-75
2023/09/02 00:37:10;;;;;;;9.82;5.40;;;;;;;;;;4983996;28;20031;-72
2023/09/02 00:39:37;;;;;;;9.20;5.28;;;;;;;;;;4994144;28;20030;-73
2023/09/02 00:42:05;;;;;;;6.18;5.22;;;;;;;;;;4981033;28;20095;-73
2023/09/02 00:44:31;;;;;;;11.32;5.28;;;;;;;;;;4982975;28;20089;-73
2023/09/02 00:46:58;;;;;;;8.40;4.70;;;;;;;;;;4979509;28;20037;-73
2023/09/02 00:49:24;;;;;;;7.72;5.07;;;;;;;;;;4980243;28;20065;-73
2023/09/02 00:51:50;;;;;;;5.88;4.88;;;;;;;;;;4986239;28;20488;-73
2023/09/02 00:54:16;;;;;;;6.13;5.50;;;;;;;;;;4980764;28;20504;-72
2023/09/02 00:56:42;;;;;;;10.15;4.60;;;;;;;;;;4988971;28;20547;-74
2023/09/02 00:59:09;;;;;;;7.47;5.18;;;;;;;;;;5007771;28;20034;-73
2023/09/02 01:01:35;;;;;;;6.72;5.47;;;;;;;;;;4993754;28;20027;-74
2023/09/02 01:04:04;;;;;;;7.05;5.38;;;;;;;;;;4987855;28;20057;-75
2023/09/02 01:06:31;;;;;;;6.93;5.45;;;;;;;;;;4987281;28;20550;-73
2023/09/02 01:08:57;;;;;;;7.10;5.40;;;;;;;;;;4978657;28;20034;-73
2023/09/02 01:11:23;;;;;;;6.60;5.40;;;;;;;;;;4988867;28;20045;-76
2023/09/02 01:13:49;;;;;;;7.65;5.25;;;;;;;;;;4989312;28;20054;-73
2023/09/02 01:16:15;;;;;;;5.95;5.43;;;;;;;;;;4989776;28;20457;-73
2023/09/02 01:18:41;;;;;;;7.10;5.00;;;;;;;;;;4981659;28;20034;-73
2023/09/02 01:21:17;;;;;;;6.18;5.15;;;;;;;;;;4990493;28;20097;-75
2023/09/02 01:24:02;;;;;;;9.23;6.43;;;;;;;;;;4997003;28;20450;-73
2023/09/02 01:26:37;;;;;;;7.00;5.28;;;;;;;;;;4988730;28;20045;-73
2023/09/02 01:29:05;;;;;;;10.50;5.78;;;;;;;;;;4984948;28;20473;-74
2023/09/02 01:31:32;;;;;;;7.97;6.13;;;;;;;;;;4985274;28;20106;-74
2023/09/02 01:33:59;;;;;;;7.25;6.15;;;;;;;;;;4982314;28;20027;-73
2023/09/02 01:36:28;;;;;;;12.05;6.55;;;;;;;;;;4985128;28;20045;-73
2023/09/02 01:38:54;;;;;;;10.18;6.13;;;;;;;;;;4979332;28;20227;-73
2023/09/02 01:41:22;;;;;;;10.38;6.15;;;;;;;;;;4994328;28;20038;-74
2023/09/02 01:43:48;;;;;;;9.65;6.38;;;;;;;;;;4989372;28;20062;-73
2023/09/02 01:46:15;;;;;;;7.40;6.00;;;;;;;;;;4980206;28;20089;-73
2023/09/02 01:48:41;;;;;;;9.40;6.32;;;;;;;;;;4980880;28;20030;-73
2023/09/02 01:51:07;;;;;;;10.35;6.07;;;;;;;;;;4985096;28;20038;-72
2023/09/02 01:53:34;;;;;;;6.88;6.15;;;;;;;;;;4980886;28;20104;-73
2023/09/02 01:56:00;;;;;;;8.90;6.50;;;;;;;;;;4992475;28;20030;-73
2023/09/02 01:58:26;;;;;;;8.27;6.32;;;;;;;;;;4994216;28;20034;-73
2023/09/02 02:00:52;;;;;;;7.30;5.65;;;;;;;;;;4983628;28;20502;-75
2023/09/02 02:03:30;;;;;;;7.45;5.80;;;;;;;;;;4995821;28;20145;-73
2023/09/02 02:05:58;;;;;;;9.65;6.40;;;;;;;;;;5009586;28;20153;-74
2023/09/02 02:08:47;;;;;;;8.25;5.95;;;;;;;;;;4990652;28;20076;-73
2023/09/02 02:11:14;;;;;;;8.57;5.88;;;;;;;;;;4986954;28;20041;-73
2023/09/02 02:13:42;;;;;;;8.60;5.60;;;;;;;;;;4984324;28;20492;-73
2023/09/02 02:16:08;;;;;;;8.20;5.85;;;;;;;;;;4985263;28;20037;-74
2023/09/02 02:18:34;;;;;;;6.93;5.90;;;;;;;;;;4995429;28;20030;-73
2023/09/02 02:21:02;;;;;;;6.47;5.60;;;;;;;;;;4996151;28;20369;-73
2023/09/02 02:23:28;;;;;;;7.80;5.10;;;;;;;;;;4993238;28;20551;-73
2023/09/02 02:26:01;;;;;;;6.15;5.30;;;;;;;;;;4986414;28;20551;-72
2023/09/02 02:28:28;;;;;;;8.15;5.25;;;;;;;;;;4995862;28;20019;-72
2023/09/02 02:30:54;;;;;;;8.18;5.63;;;;;;;;;;4987006;28;20101;-73
2023/09/02 02:33:20;;;;;;;7.85;5.65;;;;;;;;;;4987093;28;20038;-73
2023/09/02 02:35:46;;;;;;;8.55;5.43;;;;;;;;;;4991811;28;20054;-74
2023/09/02 02:38:12;;;;;;;6.78;5.38;;;;;;;;;;4990933;28;20046;-73
2023/09/02 02:40:38;;;;;;;9.00;5.63;;;;;;;;;;4980983;28;20031;-73
2023/09/02 02:43:05;;;;;;;10.50;6.10;;;;;;;;;;5000162;28;20037;-74
2023/09/02 02:45:31;;;;;;;9.02;5.95;;;;;;;;;;4995621;28;20030;-74
2023/09/02 02:47:58;;;;;;;9.45;6.22;;;;;;;;;;4988652;28;20034;-72
2023/09/02 02:50:24;;;;;;;8.55;5.60;;;;;;;;;;4991847;28;20031;-73
2023/09/02 02:52:53;;;;;;;9.05;5.60;;;;;;;;;;4990963;28;20027;-73
2023/09/02 02:55:19;;;;;;;7.50;6.50;;;;;;;;;;4985863;28;20034;-73
2023/09/02 02:57:45;;;;;;;8.27;6.30;;;;;;;;;;4980620;28;20536;-74
2023/09/02 03:00:11;;;;;;;13.15;6.18;;;;;;;;;;5000399;28;20034;-74
2023/09/02 03:02:38;;;;;;;10.60;7.10;;;;;;;;;;4991964;28;20405;-73
2023/09/02 03:05:04;;;;;;;8.88;6.70;;;;;;;;;;5000794;28;20030;-74
2023/09/02 03:07:30;;;;;;;10.40;6.43;;;;;;;;;;4983521;28;20276;-73
2023/09/02 03:09:56;;;;;;;8.82;7.57;;;;;;;;;;4988728;28;20057;-73
2023/09/02 03:12:22;;;;;;;7.75;6.72;;;;;;;;;;4993375;28;20034;-73
2023/09/02 03:14:49;;;;;;;13.45;6.32;;;;;;;;;;4989279;28;20033;-74
2023/09/02 03:17:20;;;;;;;10.65;6.70;;;;;;;;;;4980286;28;20503;-76
2023/09/02 03:19:49;;;;;;;7.57;6.88;;;;;;;;;;4994603;28;20050;-73
2023/09/02 03:22:16;;;;;;;7.45;6.65;;;;;;;;;;4980696;28;20377;-73
2023/09/02 03:24:42;;;;;;;9.23;6.07;;;;;;;;;;4982957;28;20053;-74
2023/09/02 03:27:08;;;;;;;9.48;6.95;;;;;;;;;;4979611;28;20109;-75
2023/09/02 03:29:34;;;;;;;11.60;7.30;;;;;;;;;;4986101;28;20484;-75
2023/09/02 03:32:00;;;;;;;9.88;6.07;;;;;;;;;;4998051;28;20066;-75
2023/09/02 03:34:26;;;;;;;9.57;6.35;;;;;;;;;;4985133;28;20027;-74
2023/09/02 03:36:53;;;;;;;11.23;6.93;;;;;;;;;;4991631;28;20038;-74
2023/09/02 03:39:19;;;;;;;8.48;6.57;;;;;;;;;;4980574;28;20042;-74
2023/09/02 03:41:45;;;;;;;9.02;7.13;;;;;;;;;;4992210;28;20034;-73
2023/09/02 03:44:11;;;;;;;8.88;6.07;;;;;;;;;;4987319;28;20039;-74
2023/09/02 03:46:37;;;;;;;12.15;7.25;;;;;;;;;;4985434;28;20035;-75
2023/09/02 03:49:03;;;;;;;7.95;6.95;;;;;;;;;;4997476;28;20031;-74
2023/09/02 03:51:29;;;;;;;9.20;7.00;;;;;;;;;;4997129;28;20554;-73
2023/09/02 03:53:56;;;;;;;8.43;6.47;;;;;;;;;;4995982;28;20052;-73
2023/09/02 03:56:22;;;;;;;11.57;6.85;;;;;;;;;;4989059;28;20034;-73
2023/09/02 03:58:48;;;;;;;9.52;6.80;;;;;;;;;;4983416;28;20034;-74
2023/09/02 04:01:14;;;;;;;9.73;7.30;;;;;;;;;;4983222;28;20054;-73
2023/09/02 04:03:40;;;;;;;10.48;7.68;;;;;;;;;;4985939;28;20058;-73
2023/09/02 04:06:06;;;;;;;10.43;6.82;;;;;;;;;;4989113;28;20030;-74
2023/09/02 04:08:36;;;;;;;10.05;6.93;;;;;;;;;;4996092;28;20306;-75
2023/09/02 04:11:05;;;;;;;9.57;7.10;;;;;;;;;;4987782;28;20030;-73
2023/09/02 04:13:31;;;;;;;8.20;7.07;;;;;;;;;;4988952;28;20128;-73
2023/09/02 04:15:58;;;;;;;9.25;6.55;;;;;;;;;;4988992;28;20026;-73
2023/09/02 04:18:24;;;;;;;9.15;6.70;;;;;;;;;;4990970;28;20377;-73
2023/09/02 04:20:50;;;;;;;8.50;6.38;;;;;;;;;;4989918;28;20116;-73
2023/09/02 04:23:17;;;;;;;11.98;7.25;;;;;;;;;;4992294;28;20031;-73
2023/09/02 04:25:50;;;;;;;7.60;6.85;;;;;;;;;;4985192;28;20030;-76
2023/09/02 04:28:17;;;;;;;7.65;6.85;;;;;;;;;;4988706;28;20027;-74
2023/09/02 04:30:43;;;;;;;10.45;7.30;;;;;;;;;;4986472;28;20030;-77
2023/09/02 04:33:10;;;;;;;10.82;6.70;;;;;;;;;;4995327;28;20479;-74
2023/09/02 04:35:39;;;;;;;8.65;7.35;;;;;;;;;;4985662;28;20049;-74
2023/09/02 04:38:06;;;;;;;9.30;7.35;;;;;;;;;;4989161;28;20369;-76
2023/09/02 04:40:41;;;;;;;9.13;7.22;;;;;;;;;;4982946;28;20518;-74
2023/09/02 04:43:08;;;;;;;8.10;7.30;;;;;;;;;;4999329;28;20043;-74
2023/09/02 04:45:35;;;;;;;39.65;25.55;;;;;;;;;;4985669;28;20424;-73
2023/09/02 04:48:02;;;;;;;15.23;9.98;;;;;;;;;;4987935;28;20027;-73
2023/09/02 04:50:28;;;;;;;11.93;8.63;;;;;;;;;;4990979;28;20031;-74
2023/09/02 04:52:56;;;;;;;12.15;7.47;;;;;;;;;;4985591;28;20058;-74
2023/09/02 04:55:24;;;;;;;10.13;7.68;;;;;;;;;;4990343;28;20038;-76
2023/09/02 04:57:50;;;;;;;9.60;8.07;;;;;;;;;;4980987;28;20124;-75
2023/09/02 05:00:17;;;;;;;10.32;8.15;;;;;;;;;;4982195;28;20034;-78
2023/09/02 05:02:46;;;;;;;10.02;7.93;;;;;;;;;;4992134;28;20082;-73
2023/09/02 05:05:14;;;;;;;11.55;8.40;;;;;;;;;;4982150;28;20469;-76
2023/09/02 05:07:40;;;;;;;9.50;7.60;;;;;;;;;;4987347;28;20034;-74
2023/09/02 05:10:06;;;;;;;8.90;7.78;;;;;;;;;;4988910;28;20083;-74
2023/09/02 05:12:33;;;;;;;10.80;8.27;;;;;;;;;;4988844;28;20362;-75
2023/09/02 05:15:00;;;;;;;9.32;7.85;;;;;;;;;;4984780;28;20030;-73
2023/09/02 05:17:26;;;;;;;11.27;8.00;;;;;;;;;;4972880;28;20795;-76
2023/09/02 05:19:52;;;;;;;12.07;8.30;;;;;;;;;;4977963;28;20309;-72
2023/09/02 05:22:18;;;;;;;35.45;22.98;;;;;;;;;;4986626;28;20026;-73
2023/09/02 05:24:44;;;;;;;57.72;36.85;;;;;;;;;;4990452;28;20045;-73
2023/09/02 05:27:10;;;;;;;19.45;15.32;;;;;;;;;;4984006;28;20080;-73
2023/09/02 05:29:36;;;;;;;11.82;8.98;;;;;;;;;;4995203;28;20461;-73
2023/09/02 05:32:02;;;;;;;16.02;9.55;;;;;;;;;;4986142;28;20388;-73
2023/09/02 05:34:28;;;;;;;16.50;9.32;;;;;;;;;;4989049;28;20038;-74
2023/09/02 05:36:54;;;;;;;17.98;9.50;;;;;;;;;;4998630;28;20420;-74
2023/09/02 05:39:20;;;;;;;11.80;8.85;;;;;;;;;;4989296;28;20042;-76
2023/09/02 05:41:46;;;;;;;10.05;8.63;;;;;;;;;;4984573;28;20047;-73
2023/09/02 05:44:13;;;;;;;12.85;9.15;;;;;;;;;;4986172;28;20046;-74
2023/09/02 05:46:39;;;;;;;11.13;8.98;;;;;;;;;;4976007;28;20093;-74
2023/09/02 05:49:05;;;;;;;13.93;9.60;;;;;;;;;;4987820;28;20031;-74
2023/09/02 05:51:31;;;;;;;12.48;9.52;;;;;;;;;;4981588;28;20090;-73
2023/09/02 05:53:57;;;;;;;13.98;9.27;;;;;;;;;;4986234;28;20034;-74
2023/09/02 05:56:23;;;;;;;9.50;8.45;;;;;;;;;;4989998;28;20905;-74
2023/09/02 05:58:49;;;;;;;12.18;8.95;;;;;;;;;;4992538;28;20045;-73
2023/09/02 06:01:15;;;;;;;10.15;8.70;;;;;;;;;;4979043;28;20082;-74
2023/09/02 06:03:42;;;;;;;13.88;9.77;;;;;;;;;;4994437;28;20057;-74
2023/09/02 06:06:13;;;;;;;12.68;8.73;;;;;;;;;;4984317;28;20069;-74
2023/09/02 06:08:40;;;;;;;11.77;9.00;;;;;;;;;;4982342;28;20034;-74
2023/09/02 06:11:06;;;;;;;13.30;9.38;;;;;;;;;;4987942;28;20019;-74
2023/09/02 06:13:33;;;;;;;11.75;9.35;;;;;;;;;;4989282;28;20124;-74
2023/09/02 06:16:03;;;;;;;12.13;8.75;;;;;;;;;;4990071;28;20030;-73
2023/09/02 06:18:29;;;;;;;14.93;9.10;;;;;;;;;;4985821;28;20034;-73
2023/09/02 06:20:56;;;;;;;14.00;10.30;;;;;;;;;;4989198;28;20045;-73
2023/09/02 06:23:23;;;;;;;14.77;9.20;;;;;;;;;;4989576;28;20047;-76
2023/09/02 06:26:00;;;;;;;14.25;9.63;;;;;;;;;;4992110;28;20079;-73
2023/09/02 06:28:26;;;;;;;13.25;9.85;;;;;;;;;;4985606;28;20034;-73
2023/09/02 06:30:52;;;;;;;11.95;9.40;;;;;;;;;;4993029;28;20023;-73
2023/09/02 06:33:20;;;;;;;11.40;9.65;;;;;;;;;;4989379;28;20110;-72
2023/09/02 06:35:46;;;;;;;14.10;10.50;;;;;;;;;;4977449;28;20069;-73
2023/09/02 06:38:13;;;;;;;17.15;11.68;;;;;;;;;;4994221;28;20037;-74
2023/09/02 06:40:39;;;;;;;17.83;11.20;;;;;;;;;;4985710;28;20516;-74
2023/09/02 06:43:05;;;;;;;17.92;10.75;;;;;;;;;;4981377;28;20035;-78
2023/09/02 06:45:31;;;;;;;17.52;10.77;;;;;;;;;;4991601;28;20113;-76
2023/09/02 06:47:57;;;;;;;15.88;12.05;;;;;;;;;;4979558;28;20380;-74
2023/09/02 06:50:23;;;;;;;16.60;11.23;;;;;;;;;;4989145;28;20038;-74
2023/09/02 06:52:51;;;;;;;16.40;11.98;;;;;;;;;;4987386;28;20069;-73
2023/09/02 06:55:17;;;;;;;18.05;12.30;;;;;;;;;;4991948;28;20510;-74
2023/09/02 06:57:43;;;;;;;21.58;12.85;;;;;;;;;;4986543;28;20584;-74
2023/09/02 07:00:13;;;;;;;16.27;11.70;;;;;;;;;;4988482;28;20109;-73
2023/09/02 07:02:39;;;;;;;16.67;12.98;;;;;;;;;;4998587;28;20569;-73
2023/09/02 07:05:05;;;;;;;16.05;13.70;;;;;;;;;;4979450;28;20026;-77
2023/09/02 07:07:32;;;;;;;25.02;14.38;;;;;;;;;;4985987;28;20026;-75
2023/09/02 07:09:58;;;;;;;16.17;13.75;;;;;;;;;;4983396;28;20045;-78
2023/09/02 07:12:27;;;;;;;21.15;14.50;;;;;;;;;;4991194;28;20022;-73
2023/09/02 07:14:53;;;;;;;16.70;13.23;;;;;;;;;;4983250;28;20035;-74
2023/09/02 07:17:20;;;;;;;18.42;12.55;;;;;;;;;;5001097;28;20515;-74
2023/09/02 07:19:46;;;;;;;19.67;14.43;;;;;;;;;;4985126;28;20037;-74
2023/09/02 07:22:12;;;;;;;16.27;11.77;;;;;;;;;;4994794;28;20477;-73
2023/09/02 07:24:38;;;;;;;15.40;12.35;;;;;;;;;;4992082;28;20097;-74
2023/09/02 07:27:04;;;;;;;27.63;14.63;;;;;;;;;;4989545;28;20038;-76
2023/09/02 07:29:30;;;;;;;19.52;13.93;;;;;;;;;;4984391;28;20030;-75
2023/09/02 07:31:56;;;;;;;21.92;14.20;;;;;;;;;;4982013;28;20133;-75
2023/09/02 07:34:22;;;;;;;23.63;15.60;;;;;;;;;;4985855;28;20037;-74
2023/09/02 07:36:49;;;;;;;24.60;15.30;;;;;;;;;;4984301;28;20472;-74
2023/09/02 07:39:16;;;;;;;21.98;16.02;;;;;;;;;;4993758;28;20053;-73
2023/09/02 07:41:42;;;;;;;22.67;13.88;;;;;;;;;;4996743;28;20169;-73
2023/09/02 07:44:09;;;;;;;19.13;13.93;;;;;;;;;;4992469;28;20049;-74
2023/09/02 07:46:35;;;;;;;24.60;14.18;;;;;;;;;;4979180;28;20050;-74
2023/09/02 07:49:01;;;;;;;18.25;12.85;;;;;;;;;;4985010;28;20030;-74
2023/09/02 07:51:27;;;;;;;21.38;13.45;;;;;;;;;;4989448;28;20116;-75
2023/09/02 07:53:53;;;;;;;19.45;11.75;;;;;;;;;;4990030;28;20392;-74
2023/09/02 07:56:20;;;;;;;17.92;10.70;;;;;;;;;;4982647;28;20038;-76
2023/09/02 07:58:48;;;;;;;17.20;11.13;;;;;;;;;;4988958;28;20031;-74
2023/09/02 08:01:15;;;;;;;18.75;12.48;;;;;;;;;;4977544;28;20397;-74
2023/09/02 08:03:41;;;;;;;15.75;12.20;;;;;;;;;;4985264;28;20459;-75
2023/09/02 08:06:08;;;;;;;18.17;11.05;;;;;;;;;;4980577;28;20027;-75
2023/09/02 08:08:34;;;;;;;14.57;10.65;;;;;;;;;;4992019;28;20030;-74
2023/09/02 08:11:11;;;;;;;19.73;12.07;;;;;;;;;;4992970;28;20038;-74
2023/09/02 08:13:37;;;;;;;18.33;11.43;;;;;;;;;;4985816;28;20038;-74
2023/09/02 08:16:06;;;;;;;18.67;11.70;;;;;;;;;;4985125;28;20113;-74
2023/09/02 08:18:33;;;;;;;18.33;10.07;;;;;;;;;;4989853;28;20026;-74
2023/09/02 08:20:59;;;;;;;14.68;10.05;;;;;;;;;;4987065;28;20708;-73
2023/09/02 08:23:25;;;;;;;12.25;8.85;;;;;;;;;;4996271;28;20041;-73
2023/09/02 08:25:51;;;;;;;14.60;9.13;;;;;;;;;;4983534;28;20070;-75
2023/09/02 08:28:17;;;;;;;16.17;9.10;;;;;;;;;;4987922;28;20035;-74
2023/09/02 08:30:44;;;;;;;13.70;8.85;;;;;;;;;;4990255;28;20125;-74
2023/09/02 08:33:10;;;;;;;14.38;8.85;;;;;;;;;;4990959;28;20039;-76
2023/09/02 08:35:37;;;;;;;14.27;9.52;;;;;;;;;;4991899;28;20061;-74
2023/09/02 08:38:06;;;;;;;13.85;9.68;;;;;;;;;;4991179;28;20504;-74
2023/09/02 08:40:32;;;;;;;13.95;9.57;;;;;;;;;;4980829;28;20392;-74
2023/09/02 08:43:04;;;;;;;16.02;10.27;;;;;;;;;;4991557;28;20472;-74
2023/09/02 08:45:31;;;;;;;14.75;9.57;;;;;;;;;;4990105;28;20038;-75
2023/09/02 08:48:01;;;;;;;14.13;8.77;;;;;;;;;;4991835;28;20499;-75
2023/09/02 08:50:28;;;;;;;12.93;9.20;;;;;;;;;;4990560;28;20787;-74
2023/09/02 08:52:55;;;;;;;14.43;7.93;;;;;;;;;;4984927;28;20089;-75
2023/09/02 08:55:21;;;;;;;13.15;6.70;;;;;;;;;;4988526;28;20372;-74
2023/09/02 08:57:47;;;;;;;12.38;8.23;;;;;;;;;;4988244;28;20045;-74
2023/09/02 09:00:13;;;;;;;12.20;6.78;;;;;;;;;;4992325;28;20484;-76
2023/09/02 09:02:41;;;;;;;11.15;8.18;;;;;;;;;;4981933;28;20047;-79
2023/09/02 09:05:08;;;;;;;15.45;7.72;;;;;;;;;;5001526;28;20030;-78
2023/09/02 09:07:34;;;;;;;16.05;8.52;;;;;;;;;;4990657;28;20030;-78
2023/09/02 09:10:01;;;;;;;14.00;8.07;;;;;;;;;;4986869;28;20034;-76
2023/09/02 09:12:29;;;;;;;31.25;20.95;;;;;;;;;;4981612;28;20037;-75
2023/09/02 09:14:58;;;;;;;47.60;31.58;;;;;;;;;;4988891;28;20046;-74
2023/09/02 09:17:25;;;;;;;13.30;8.70;;;;;;;;;;4984973;28;20033;-74
2023/09/02 09:19:52;;;;;;;13.25;8.35;;;;;;;;;;4988631;28;20074;-74
2023/09/02 09:22:19;;;;;;;12.80;7.95;;;;;;;;;;4996718;28;20029;-73
2023/09/02 09:24:45;;;;;;;12.65;8.10;;;;;;;;;;4994884;28;20022;-80
2023/09/02 09:27:11;;;;;;;12.10;7.88;;;;;;;;;;4990434;28;20053;-76
2023/09/02 09:29:41;;;;;;;10.05;7.45;;;;;;;;;;4997142;28;20113;-77
2023/09/02 09:32:14;;;;;;;14.02;7.43;;;;;;;;;;4985025;28;20030;-76
2023/09/02 09:34:44;;;;;;;12.85;7.68;;;;;;;;;;4987764;28;20030;-79
2023/09/02 09:37:10;;;;;;;12.02;8.20;;;;;;;;;;4989746;28;20046;-79
2023/09/02 09:39:40;;;;;;;16.58;7.85;;;;;;;;;;4989749;28;20027;-79
2023/09/02 09:42:06;;;;;;;11.20;6.15;;;;;;;;;;4992057;28;20019;-81
2023/09/02 09:44:33;;;;;;;12.45;7.28;;;;;;;;;;4982651;28;20091;-77
2023/09/02 09:46:59;;;;;;;11.27;7.93;;;;;;;;;;4991548;28;20038;-76
2023/09/02 09:49:25;;;;;;;10.85;7.18;;;;;;;;;;4982060;28;20038;-79
2023/09/02 09:52:11;;;;;;;13.40;7.78;;;;;;;;;;4986490;28;20045;-77
2023/09/02 09:54:41;;;;;;;12.65;8.13;;;;;;;;;;4987035;28;20030;-84
2023/09/02 09:57:12;;;;;;;12.18;7.57;;;;;;;;;;4985046;28;20030;-80
2023/09/02 09:59:38;;;;;;;11.32;6.15;;;;;;;;;;5002730;28;20023;-80
2023/09/02 10:02:04;;;;;;;10.07;6.45;;;;;;;;;;4980276;28;20081;-78
2023/09/02 10:04:31;;;;;;;13.55;7.35;;;;;;;;;;4986517;28;20074;-78
2023/09/02 10:07:01;;;;;;;10.52;6.55;;;;;;;;;;4982232;28;20076;-79
2023/09/02 10:09:43;;;;;;;10.50;6.38;;;;;;;;;;4983183;28;20042;-79
2023/09/02 10:12:11;;;;;;;10.00;6.80;;;;;;;;;;4989170;28;20026;-75
2023/09/02 10:14:37;;;;;;;17.25;10.48;;;;;;;;;;4986184;28;20035;-78
2023/09/02 10:17:03;;;;;;;12.07;8.07;;;;;;;;;;4988810;28;20420;-80
2023/09/02 10:19:30;;;;;;;13.23;8.07;;;;;;;;;;4991640;28;20031;-79
2023/09/02 10:21:57;;;;;;;13.70;6.68;;;;;;;;;;4996055;28;20547;-77
2023/09/02 10:24:24;;;;;;;11.13;7.13;;;;;;;;;;4992062;28;20042;-76
2023/09/02 10:26:53;;;;;;;14.73;6.00;;;;;;;;;;4989797;28;20038;-79
2023/09/02 10:29:25;;;;;;;16.83;6.90;;;;;;;;;;4997396;28;20037;-77
2023/09/02 10:31:55;;;;;;;12.20;5.85;;;;;;;;;;4989936;28;20034;-77
2023/09/02 10:34:29;;;;;;;10.13;5.32;;;;;;;;;;4998278;28;20050;-78
2023/09/02 10:36:59;;;;;;;10.55;5.78;;;;;;;;;;4989054;28;21262;-78
2023/09/02 10:39:44;;;;;;;8.88;4.40;;;;;;;;;;4991794;28;20436;-77
2023/09/02 10:42:10;;;;;;;7.20;4.38;;;;;;;;;;4996512;28;20118;-78
2023/09/02 10:44:37;;;;;;;7.00;4.55;;;;;;;;;;4992366;28;20046;-76
2023/09/02 10:47:03;;;;;;;9.18;4.78;;;;;;;;;;4993114;28;20048;-77
2023/09/02 10:49:30;;;;;;;8.63;4.45;;;;;;;;;;4986608;28;20471;-78
2023/09/02 10:51:56;;;;;;;8.65;4.35;;;;;;;;;;4984211;28;20034;-82
2023/09/02 10:54:22;;;;;;;10.52;4.00;;;;;;;;;;5005728;28;20058;-78
2023/09/02 10:56:49;;;;;;;6.30;4.03;;;;;;;;;;4996340;28;20042;-77
2023/09/02 10:59:28;;;;;;;13.52;9.80;;;;;;;;;;4991401;28;20380;-79
2023/09/02 11:01:54;;;;;;;8.15;4.65;;;;;;;;;;4997860;28;20039;-80
2023/09/02 11:04:39;;;;;;;6.40;4.28;;;;;;;;;;4991631;28;20059;-81
2023/09/02 11:07:20;;;;;;;11.07;4.75;;;;;;;;;;4990243;28;20061;-82
2023/09/02 11:09:53;;;;;;;7.45;4.00;;;;;;;;;;4991804;28;20089;-84
2023/09/02 11:12:20;;;;;;;6.93;4.32;;;;;;;;;;4992910;28;20110;-81
2023/09/02 11:15:04;;;;;;;11.35;4.68;;;;;;;;;;4990095;28;20482;-85
2023/09/02 11:17:30;;;;;;;8.10;4.30;;;;;;;;;;4991864;28;20029;-84
2023/09/02 11:19:57;;;;;;;6.30;3.55;;;;;;;;;;4992360;28;20058;-79
2023/09/02 11:22:42;;;;;;;7.05;4.38;;;;;;;;;;4995361;28;20105;-82
2023/09/02 11:25:09;;;;;;;6.63;3.33;;;;;;;;;;4992469;28;20360;-82
2023/09/02 11:27:44;;;;;;;7.22;4.10;;;;;;;;;;4998437;28;20036;-81
2023/09/02 11:30:11;;;;;;;7.47;4.35;;;;;;;;;;4995790;28;20034;-81
2023/09/02 11:32:43;;;;;;;7.13;3.60;;;;;;;;;;4983393;28;20019;-80
2023/09/02 11:35:11;;;;;;;6.90;3.70;;;;;;;;;;4998960;28;20038;-79
2023/09/02 11:37:37;;;;;;;6.78;3.30;;;;;;;;;;4997673;28;20029;-78
2023/09/02 11:40:33;;;;;;;9.45;3.95;;;;;;;;;;4993008;28;20054;-77
2023/09/02 11:43:00;;;;;;;4.47;2.83;;;;;;;;;;4987829;28;20050;-79
2023/09/02 11:45:33;;;;;;;5.50;2.90;;;;;;;;;;4996132;28;20141;-82
2023/09/02 11:48:00;;;;;;;5.32;2.63;;;;;;;;;;4991044;28;20034;-87
2023/09/02 11:50:26;;;;;;;4.70;3.00;;;;;;;;;;4986419;28;20038;-79
2023/09/02 11:52:53;;;;;;;4.53;2.72;;;;;;;;;;4990650;28;20026;-82
2023/09/02 11:55:19;;;;;;;23.52;12.48;;;;;;;;;;4985587;28;20084;-84
2023/09/02 11:57:46;;;;;;;12.10;5.85;;;;;;;;;;4989548;28;20034;-82
2023/09/02 12:00:16;;;;;;;7.05;3.90;;;;;;;;;;4984323;28;20852;-84
2023/09/02 12:02:42;;;;;;;11.43;2.65;;;;;;;;;;4995396;28;20026;-82
2023/09/02 12:05:08;;;;;;;13.95;3.15;;;;;;;;;;4980707;28;20500;-83
2023/09/02 12:07:36;;;;;;;5.85;2.92;;;;;;;;;;4998401;28;20037;-84
2023/09/02 12:10:12;;;;;;;5.88;2.80;;;;;;;;;;4989085;28;20031;-89
2023/09/02 12:12:42;;;;;;;8.70;3.30;;;;;;;;;;4992566;28;20104;-84
2023/09/02 12:15:12;;;;;;;8.60;3.15;;;;;;;;;;4992891;28;20030;-83
2023/09/02 12:17:39;;;;;;;8.13;2.90;;;;;;;;;;4989453;28;20124;-82
2023/09/02 12:20:05;;;;;;;12.65;3.35;;;;;;;;;;4993745;28;20112;-81
2023/09/02 12:22:31;;;;;;;11.60;2.83;;;;;;;;;;4985938;28;20358;-83
2023/09/02 12:24:57;;;;;;;9.60;4.47;;;;;;;;;;4993294;28;20125;-81
2023/09/02 12:27:24;;;;;;;6.00;3.63;;;;;;;;;;4988208;28;20046;-81
2023/09/02 12:29:54;;;;;;;6.78;2.50;;;;;;;;;;5007110;28;20022;-82
2023/09/02 12:32:20;;;;;;;7.22;2.40;;;;;;;;;;5007105;28;20026;-80
2023/09/02 12:34:46;;;;;;;20.60;3.88;;;;;;;;;;4991824;28;20066;-81
2023/09/02 12:37:20;;;;;;;5.70;2.50;;;;;;;;;;4987889;28;20049;-84
2023/09/02 12:39:46;;;;;;;4.55;2.78;;;;;;;;;;4995441;28;20038;-81
2023/09/02 12:42:19;;;;;;;7.57;2.45;;;;;;;;;;4987276;28;20383;-82
2023/09/02 12:44:49;;;;;;;21.05;3.10;;;;;;;;;;4984590;28;20118;-83
2023/09/02 12:47:23;;;;;;;6.10;2.13;;;;;;;;;;4990148;28;20464;-81
2023/09/02 12:49:49;;;;;;;4.78;1.80;;;;;;;;;;4993468;28;20034;-82
2023/09/02 12:52:16;;;;;;;4.75;1.88;;;;;;;;;;4990244;28;20673;-78
2023/09/02 12:54:45;;;;;;;5.25;3.03;;;;;;;;;;4997215;28;20522;-81
2023/09/02 12:57:11;;;;;;;3.85;2.83;;;;;;;;;;4988539;28;20026;-82
2023/09/02 12:59:37;;;;;;;6.57;2.50;;;;;;;;;;4984281;28;20026;-82
2023/09/02 13:02:04;;;;;;;5.30;1.88;;;;;;;;;;4999823;28;20057;-79
2023/09/02 13:04:30;;;;;;;4.45;1.77;;;;;;;;;;4984435;28;20066;-82
2023/09/02 13:06:56;;;;;;;2.88;1.75;;;;;;;;;;4992914;28;20042;-83
2023/09/02 13:09:23;;;;;;;9.15;2.47;;;;;;;;;;4991078;28;20030;-82
2023/09/02 13:11:49;;;;;;;8.45;2.00;;;;;;;;;;4985754;28;20038;-83
2023/09/02 13:14:15;;;;;;;7.72;2.90;;;;;;;;;;4989296;28;20033;-81
2023/09/02 13:16:43;;;;;;;2.95;1.90;;;;;;;;;;4990721;28;20029;-81
2023/09/02 13:19:09;;;;;;;4.18;2.35;;;;;;;;;;4999226;28;20074;-81
2023/09/02 13:21:37;;;;;;;4.22;1.63;;;;;;;;;;4994437;28;20026;-79
2023/09/02 13:24:03;;;;;;;3.78;1.55;;;;;;;;;;4994652;28;20038;-82
2023/09/02 13:26:30;;;;;;;5.75;1.63;;;;;;;;;;4988736;28;20034;-81
2023/09/02 13:28:56;;;;;;;3.65;1.50;;;;;;;;;;4991259;28;20570;-81
2023/09/02 13:31:22;;;;;;;5.30;1.40;;;;;;;;;;4980119;28;20030;-81
2023/09/02 13:33:48;;;;;;;4.82;1.45;;;;;;;;;;5004418;28;20038;-79
2023/09/02 13:36:14;;;;;;;2.28;1.40;;;;;;;;;;5002566;28;20582;-81
2023/09/02 13:38:41;;;;;;;2.13;1.48;;;;;;;;;;4982204;28;20109;-78
2023/09/02 13:41:07;;;;;;;3.55;1.63;;;;;;;;;;4993010;28;20025;-82
2023/09/02 13:43:33;;;;;;;2.15;1.33;;;;;;;;;;4979927;28;20165;-80
2023/09/02 13:46:00;;;;;;;5.00;1.30;;;;;;;;;;4984978;28;20038;-81
2023/09/02 13:48:26;;;;;;;5.05;1.52;;;;;;;;;;4982453;28;20093;-80
2023/09/02 13:50:53;;;;;;;6.20;4.13;;;;;;;;;;4988260;28;20392;-77
2023/09/02 13:53:19;;;;;;;6.40;3.25;;;;;;;;;;4989800;28;20038;-80
2023/09/02 13:55:45;;;;;;;3.30;1.60;;;;;;;;;;4997875;28;20080;-82
2023/09/02 13:58:15;;;;;;;4.63;1.33;;;;;;;;;;4986159;28;20387;-79
2023/09/02 14:00:42;;;;;;;3.15;1.15;;;;;;;;;;4991011;28;20038;-80
2023/09/02 14:03:17;;;;;;;6.63;1.45;;;;;;;;;;4996755;28;20061;-78
2023/09/02 14:05:46;;;;;;;2.90;1.20;;;;;;;;;;4987096;28;20457;-80
2023/09/02 14:08:15;;;;;;;2.08;1.00;;;;;;;;;;4987469;28;20031;-79
2023/09/02 14:10:43;;;;;;;2.78;1.08;;;;;;;;;;4999803;28;20038;-79
2023/09/02 14:13:09;;;;;;;1.98;1.20;;;;;;;;;;4990566;28;20420;-77
2023/09/02 14:15:36;;;;;;;3.03;1.15;;;;;;;;;;4987671;28;20392;-80
2023/09/02 14:18:02;;;;;;;3.13;1.00;;;;;;;;;;4996500;28;20060;-79
2023/09/02 14:20:28;;;;;;;3.08;1.10;;;;;;;;;;4985511;28;20023;-79
2023/09/02 14:22:55;;;;;;;1.75;1.10;;;;;;;;;;4987112;28;20043;-80
2023/09/02 14:25:21;;;;;;;1.83;1.10;;;;;;;;;;4991375;28;20128;-80
2023/09/02 14:27:47;;;;;;;1.65;0.80;;;;;;;;;;4991892;28;20031;-79
2023/09/02 14:30:13;;;;;;;1.23;0.80;;;;;;;;;;4992042;28;20053;-79
2023/09/02 14:32:39;;;;;;;1.83;1.08;;;;;;;;;;4991788;28;20476;-78
2023/09/02 14:35:05;;;;;;;1.65;1.20;;;;;;;;;;4990275;28;20396;-77